PWSweather.com
Personal Weather Stations
Station Observations
LEONMETEO
LeonES 24008

LeonES 24008

Lat: 42.6055559, Lon: -5.5752249

Elevation: 2690

Station Type: La Crosse WS3600

Latest ConditionsUpdated 12:31:43 PM GMT+01:01 Saturday, Apr 18, 2015
Currently Today's Max Today's Min Today's Average
Temperature 55.0°F12.8°C 55.0°F12.8°C 45.6°F7.6°C 49.6°F9.8°C
Dew Point 41.3°F5.2°C 42.3°F5.7°C 37.1°F2.8°C 39.7°F4.3°C
Winds - N16091.8 kmh N Calm Calm - Calm Calm
Wind Gusts -- -- - -
Humidity 60% 75% 60% 69%
Pressure 29.70 in1005.8 mb 29.77 in1008.1 mb 29.69 in1005.4 mb -
Hour Temp Dew Point Humidity Winds Wind Gusts Pressure Precip Precip Rate Daily Precip Total
12:31 PM 55.0°F12.8°C 41.3°F5.2°C 60% - N16091.8 kmh N -- 29.70 in1005.8 mb 0.00 in0.0 mm 0.00 in0.0 mm 0.00 in0.0 mm
12:26 PM 54.3°F12.4°C 41.1°F5.1°C 60% - N16091.8 kmh N -- 29.70 in1005.8 mb 0.00 in0.0 mm 0.00 in0.0 mm 0.00 in0.0 mm
12:21 PM 54.1°F12.3°C 40.9°F4.9°C 61% - N16091.8 kmh N -- 29.70 in1005.8 mb 0.00 in0.0 mm 0.00 in0.0 mm 0.00 in0.0 mm
12:16 PM 54.1°F12.3°C 40.9°F4.9°C 61% - N16091.8 kmh N -- 29.70 in1005.8 mb 0.00 in0.0 mm 0.00 in0.0 mm 0.00 in0.0 mm
12:11 PM 53.7°F12.1°C 41.0°F5.0°C 62% - N16091.8 kmh N -- 29.70 in1005.8 mb 0.00 in0.0 mm 0.00 in0.0 mm 0.00 in0.0 mm
12:06 PM 53.4°F11.9°C 41.1°F5.1°C 63% - N16091.8 kmh N -- 29.70 in1005.8 mb 0.00 in0.0 mm 0.00 in0.0 mm 0.00 in0.0 mm
12:01 PM 53.2°F11.8°C 40.9°F4.9°C 63% - N16091.8 kmh N -- 29.70 in1005.8 mb 0.00 in0.0 mm 0.00 in0.0 mm 0.00 in0.0 mm
11:56 AM 52.5°F11.4°C 40.6°F4.8°C 64% - N16091.8 kmh N -- 29.70 in1005.8 mb 0.00 in0.0 mm 0.00 in0.0 mm 0.00 in0.0 mm
11:51 AM 52.1°F11.2°C 40.7°F4.8°C 65% - N16091.8 kmh N -- 29.71 in1006.1 mb 0.00 in0.0 mm 0.00 in0.0 mm 0.00 in0.0 mm
11:46 AM 51.6°F10.9°C 40.2°F4.6°C 65% - N16091.8 kmh N -- 29.71 in1006.1 mb 0.00 in0.0 mm 0.00 in0.0 mm 0.00 in0.0 mm
11:41 AM 51.0°F10.6°C 40.0°F4.4°C 66% - N16091.8 kmh N -- 29.71 in1006.1 mb 0.00 in0.0 mm 0.00 in0.0 mm 0.00 in0.0 mm
11:36 AM 50.7°F10.4°C 39.7°F4.3°C 66% - N16091.8 kmh N -- 29.71 in1006.1 mb 0.00 in0.0 mm 0.00 in0.0 mm 0.00 in0.0 mm
11:31 AM 50.5°F10.3°C 39.9°F4.4°C 66% - N16091.8 kmh N -- 29.71 in1006.1 mb 0.00 in0.0 mm 0.00 in0.0 mm 0.00 in0.0 mm
11:26 AM 50.5°F10.3°C 39.9°F4.4°C 67% - N16091.8 kmh N -- 29.71 in1006.1 mb 0.00 in0.0 mm 0.00 in0.0 mm 0.00 in0.0 mm
11:21 AM 50.3°F10.2°C 39.4°F4.1°C 66% - N16091.8 kmh N -- 29.71 in1006.1 mb 0.00 in0.0 mm 0.00 in0.0 mm 0.00 in0.0 mm
11:16 AM 50.1°F10.1°C 39.2°F4.0°C 66% - N16091.8 kmh N -- 29.71 in1006.1 mb 0.00 in0.0 mm 0.00 in0.0 mm 0.00 in0.0 mm
11:11 AM 50.3°F10.2°C 39.4°F4.1°C 66% - N16091.8 kmh N -- 29.71 in1006.1 mb 0.00 in0.0 mm 0.00 in0.0 mm 0.00 in0.0 mm
11:06 AM 50.5°F10.3°C 39.5°F4.2°C 66% - N16091.8 kmh N -- 29.71 in1006.1 mb 0.00 in0.0 mm 0.00 in0.0 mm 0.00 in0.0 mm
11:01 AM 50.7°F10.4°C 39.7°F4.3°C 66% - N16091.8 kmh N -- 29.71 in1006.1 mb 0.00 in0.0 mm 0.00 in0.0 mm 0.00 in0.0 mm
10:56 AM 50.9°F10.5°C 39.9°F4.4°C 66% - N16091.8 kmh N -- 29.71 in1006.1 mb 0.00 in0.0 mm 0.00 in0.0 mm 0.00 in0.0 mm
10:51 AM 51.0°F10.6°C 40.0°F4.4°C 66% - N16091.8 kmh N -- 29.71 in1006.1 mb 0.00 in0.0 mm 0.00 in0.0 mm 0.00 in0.0 mm
10:46 AM 51.2°F10.7°C 40.2°F4.6°C 66% - N16091.8 kmh N -- 29.71 in1006.1 mb 0.00 in0.0 mm 0.00 in0.0 mm 0.00 in0.0 mm
10:41 AM 51.6°F10.9°C 40.6°F4.8°C 66% - N16091.8 kmh N -- 29.71 in1006.1 mb 0.00 in0.0 mm 0.00 in0.0 mm 0.00 in0.0 mm
10:36 AM 51.4°F10.8°C 40.4°F4.7°C 66% - N16091.8 kmh N -- 29.71 in1006.1 mb 0.00 in0.0 mm 0.00 in0.0 mm 0.00 in0.0 mm
10:31 AM 51.0°F10.6°C 40.0°F4.4°C 66% - N16091.8 kmh N -- 29.71 in1006.1 mb 0.00 in0.0 mm 0.00 in0.0 mm 0.00 in0.0 mm
10:26 AM 50.9°F10.5°C 40.3°F4.6°C 66% - N16091.8 kmh N -- 29.71 in1006.1 mb 0.00 in0.0 mm 0.00 in0.0 mm 0.00 in0.0 mm
10:21 AM 50.7°F10.4°C 40.1°F4.5°C 67% - N16091.8 kmh N -- 29.71 in1006.1 mb 0.00 in0.0 mm 0.00 in0.0 mm 0.00 in0.0 mm
10:16 AM 50.5°F10.3°C 40.3°F4.6°C 67% - N16091.8 kmh N -- 29.71 in1006.1 mb 0.00 in0.0 mm 0.00 in0.0 mm 0.00 in0.0 mm
10:11 AM 50.5°F10.3°C 40.3°F4.6°C 68% - N16091.8 kmh N -- 29.71 in1006.1 mb 0.00 in0.0 mm 0.00 in0.0 mm 0.00 in0.0 mm
10:06 AM 50.5°F10.3°C 40.7°F4.8°C 69% - N16091.8 kmh N -- 29.71 in1006.1 mb 0.00 in0.0 mm 0.00 in0.0 mm 0.00 in0.0 mm
10:01 AM 49.8°F9.9°C 39.6°F4.2°C 68% - N16091.8 kmh N -- 29.71 in1006.1 mb 0.00 in0.0 mm 0.00 in0.0 mm 0.00 in0.0 mm
09:56 AM 49.4°F9.7°C 39.3°F4.1°C 68% - N16091.8 kmh N -- 29.71 in1006.1 mb 0.00 in0.0 mm 0.00 in0.0 mm 0.00 in0.0 mm
09:51 AM 49.2°F9.6°C 39.1°F3.9°C 68% - N16091.8 kmh N -- 29.71 in1006.1 mb 0.00 in0.0 mm 0.00 in0.0 mm 0.00 in0.0 mm
09:46 AM 48.9°F9.4°C 38.7°F3.7°C 68% - N16091.8 kmh N -- 29.71 in1006.1 mb 0.00 in0.0 mm 0.00 in0.0 mm 0.00 in0.0 mm
09:41 AM 48.5°F9.2°C 38.4°F3.6°C 68% - N16091.8 kmh N -- 29.71 in1006.1 mb 0.00 in0.0 mm 0.00 in0.0 mm 0.00 in0.0 mm
09:36 AM 48.3°F9.1°C 39.0°F3.9°C 68% - N16091.8 kmh N -- 29.71 in1006.1 mb 0.00 in0.0 mm 0.00 in0.0 mm 0.00 in0.0 mm
09:31 AM 48.3°F9.1°C 39.0°F3.9°C 69% - N16091.8 kmh N -- 29.71 in1006.1 mb 0.00 in0.0 mm 0.00 in0.0 mm 0.00 in0.0 mm
09:26 AM 48.2°F9.0°C 38.8°F3.8°C 70% - N16091.8 kmh N -- 29.71 in1006.1 mb 0.00 in0.0 mm 0.00 in0.0 mm 0.00 in0.0 mm
09:21 AM 48.0°F8.9°C 38.6°F3.7°C 70% - N16091.8 kmh N -- 29.71 in1006.1 mb 0.00 in0.0 mm 0.00 in0.0 mm 0.00 in0.0 mm
09:16 AM 47.6°F8.7°C 38.6°F3.7°C 71% - N16091.8 kmh N -- 29.71 in1006.1 mb 0.00 in0.0 mm 0.00 in0.0 mm 0.00 in0.0 mm
09:15 AM 47.6°F8.7°C 38.6°F3.7°C 71% - N16091.8 kmh N -- 29.71 in1006.1 mb 0.00 in0.0 mm 0.00 in0.0 mm 0.00 in0.0 mm
09:11 AM 47.1°F8.4°C 38.5°F3.6°C 71% - N16091.8 kmh N -- 29.71 in1006.1 mb 0.00 in0.0 mm 0.00 in0.0 mm 0.00 in0.0 mm
09:10 AM 47.1°F8.4°C 38.5°F3.6°C 71% - N16091.8 kmh N -- 29.71 in1006.1 mb 0.00 in0.0 mm 0.00 in0.0 mm 0.00 in0.0 mm
09:06 AM 47.1°F8.4°C 38.5°F3.6°C 72% - N16091.8 kmh N -- 29.71 in1006.1 mb 0.00 in0.0 mm 0.00 in0.0 mm 0.00 in0.0 mm
09:05 AM 47.1°F8.4°C 38.5°F3.6°C 72% - N16091.8 kmh N -- 29.71 in1006.1 mb 0.00 in0.0 mm 0.00 in0.0 mm 0.00 in0.0 mm
09:01 AM 46.9°F8.3°C 38.3°F3.5°C 72% - N16091.8 kmh N -- 29.71 in1006.1 mb 0.00 in0.0 mm 0.00 in0.0 mm 0.00 in0.0 mm
09:00 AM 46.9°F8.3°C 38.3°F3.5°C 72% - N16091.8 kmh N -- 29.71 in1006.1 mb 0.00 in0.0 mm 0.00 in0.0 mm 0.00 in0.0 mm
08:56 AM 46.7°F8.2°C 38.2°F3.4°C 72% - N16091.8 kmh N -- 29.71 in1006.1 mb 0.00 in0.0 mm 0.00 in0.0 mm 0.00 in0.0 mm
08:55 AM 46.7°F8.2°C 38.2°F3.4°C 72% - N16091.8 kmh N -- 29.71 in1006.1 mb 0.00 in0.0 mm 0.00 in0.0 mm 0.00 in0.0 mm
08:51 AM 46.5°F8.1°C 38.4°F3.6°C 73% - N16091.8 kmh N -- 29.71 in1006.1 mb 0.00 in0.0 mm 0.00 in0.0 mm 0.00 in0.0 mm
08:50 AM 46.5°F8.1°C 38.4°F3.6°C 73% - N16091.8 kmh N -- 29.71 in1006.1 mb 0.00 in0.0 mm 0.00 in0.0 mm 0.00 in0.0 mm
08:45 AM 46.2°F7.9°C 38.0°F3.3°C 73% - N16091.8 kmh N -- 29.71 in1006.1 mb 0.00 in0.0 mm 0.00 in0.0 mm 0.00 in0.0 mm
08:40 AM 46.2°F7.9°C 38.0°F3.3°C 73% - N16091.8 kmh N -- 29.71 in1006.1 mb 0.00 in0.0 mm 0.00 in0.0 mm 0.00 in0.0 mm
08:35 AM 46.0°F7.8°C 37.8°F3.2°C 73% - N16091.8 kmh N -- 29.71 in1006.1 mb 0.00 in0.0 mm 0.00 in0.0 mm 0.00 in0.0 mm
08:30 AM 46.0°F7.8°C 37.8°F3.2°C 73% - N16091.8 kmh N -- 29.71 in1006.1 mb 0.00 in0.0 mm 0.00 in0.0 mm 0.00 in0.0 mm
08:25 AM 45.6°F7.6°C 37.5°F3.1°C 73% - N16091.8 kmh N -- 29.71 in1006.1 mb 0.00 in0.0 mm 0.00 in0.0 mm 0.00 in0.0 mm
08:20 AM 45.6°F7.6°C 37.1°F2.8°C 73% - N16091.8 kmh N -- 29.71 in1006.1 mb 0.00 in0.0 mm 0.00 in0.0 mm 0.00 in0.0 mm
08:15 AM 45.8°F7.7°C 37.3°F2.9°C 72% - N16091.8 kmh N -- 29.71 in1006.1 mb 0.00 in0.0 mm 0.00 in0.0 mm 0.00 in0.0 mm
08:10 AM 46.0°F7.8°C 37.5°F3.1°C 72% - N16091.8 kmh N -- 29.71 in1006.1 mb 0.00 in0.0 mm 0.00 in0.0 mm 0.00 in0.0 mm
08:05 AM 46.0°F7.8°C 37.5°F3.1°C 72% - N16091.8 kmh N -- 29.71 in1006.1 mb 0.00 in0.0 mm 0.00 in0.0 mm 0.00 in0.0 mm
08:00 AM 46.0°F7.8°C 37.5°F3.1°C 72% - N16091.8 kmh N -- 29.71 in1006.1 mb 0.00 in0.0 mm 0.00 in0.0 mm 0.00 in0.0 mm
07:55 AM 46.0°F7.8°C 37.5°F3.1°C 72% - N16091.8 kmh N -- 29.71 in1006.1 mb 0.00 in0.0 mm 0.00 in0.0 mm 0.00 in0.0 mm
07:50 AM 46.2°F7.9°C 37.3°F2.9°C 71% - N16091.8 kmh N -- 29.71 in1006.1 mb 0.00 in0.0 mm 0.00 in0.0 mm 0.00 in0.0 mm
07:45 AM 46.4°F8.0°C 37.9°F3.3°C 72% - N16091.8 kmh N -- 29.71 in1006.1 mb 0.00 in0.0 mm 0.00 in0.0 mm 0.00 in0.0 mm
07:40 AM 46.4°F8.0°C 37.5°F3.1°C 71% - N16091.8 kmh N -- 29.71 in1006.1 mb 0.00 in0.0 mm 0.00 in0.0 mm 0.00 in0.0 mm
07:35 AM 46.4°F8.0°C 37.5°F3.1°C 71% - N16091.8 kmh N -- 29.71 in1006.1 mb 0.00 in0.0 mm 0.00 in0.0 mm 0.00 in0.0 mm
07:30 AM 46.4°F8.0°C 37.9°F3.3°C 72% - N16091.8 kmh N -- 29.71 in1006.1 mb 0.00 in0.0 mm 0.00 in0.0 mm 0.00 in0.0 mm
07:25 AM 46.2°F7.9°C 37.3°F2.9°C 71% - N16091.8 kmh N -- 29.71 in1006.1 mb 0.00 in0.0 mm 0.00 in0.0 mm 0.00 in0.0 mm
07:20 AM 46.2°F7.9°C 37.3°F2.9°C 71% - N16091.8 kmh N -- 29.71 in1006.1 mb 0.00 in0.0 mm 0.00 in0.0 mm 0.00 in0.0 mm
07:15 AM 46.2°F7.9°C 37.3°F2.9°C 71% - N16091.8 kmh N -- 29.71 in1006.1 mb 0.00 in0.0 mm 0.00 in0.0 mm 0.00 in0.0 mm
07:10 AM 46.4°F8.0°C 37.5°F3.1°C 71% - N16091.8 kmh N -- 29.71 in1006.1 mb 0.00 in0.0 mm 0.00 in0.0 mm 0.00 in0.0 mm
07:05 AM 46.4°F8.0°C 37.5°F3.1°C 71% - N16091.8 kmh N -- 29.71 in1006.1 mb 0.00 in0.0 mm 0.00 in0.0 mm 0.00 in0.0 mm
07:00 AM 46.4°F8.0°C 37.5°F3.1°C 71% - N16091.8 kmh N -- 29.70 in1005.8 mb 0.00 in0.0 mm 0.00 in0.0 mm 0.00 in0.0 mm
06:55 AM 46.5°F8.1°C 37.7°F3.2°C 71% - N16091.8 kmh N -- 29.70 in1005.8 mb 0.00 in0.0 mm 0.00 in0.0 mm 0.00 in0.0 mm
06:50 AM 46.5°F8.1°C 37.7°F3.2°C 71% - N16091.8 kmh N -- 29.70 in1005.8 mb 0.00 in0.0 mm 0.00 in0.0 mm 0.00 in0.0 mm
06:45 AM 46.5°F8.1°C 37.7°F3.2°C 71% - N16091.8 kmh N -- 29.70 in1005.8 mb 0.00 in0.0 mm 0.00 in0.0 mm 0.00 in0.0 mm
06:40 AM 46.5°F8.1°C 37.7°F3.2°C 71% - N16091.8 kmh N -- 29.70 in1005.8 mb 0.00 in0.0 mm 0.00 in0.0 mm 0.00 in0.0 mm
06:35 AM 46.7°F8.2°C 37.8°F3.2°C 71% - N16091.8 kmh N -- 29.70 in1005.8 mb 0.00 in0.0 mm 0.00 in0.0 mm 0.00 in0.0 mm
06:30 AM 46.7°F8.2°C 37.8°F3.2°C 71% - N16091.8 kmh N -- 29.70 in1005.8 mb 0.00 in0.0 mm 0.00 in0.0 mm 0.00 in0.0 mm
06:25 AM 46.9°F8.3°C 38.0°F3.3°C 71% - N16091.8 kmh N -- 29.70 in1005.8 mb 0.00 in0.0 mm 0.00 in0.0 mm 0.00 in0.0 mm
06:20 AM 47.1°F8.4°C 38.2°F3.4°C 71% - N16091.8 kmh N -- 29.70 in1005.8 mb 0.00 in0.0 mm 0.00 in0.0 mm 0.00 in0.0 mm
06:15 AM 47.1°F8.4°C 38.2°F3.4°C 71% - N16091.8 kmh N -- 29.69 in1005.4 mb 0.00 in0.0 mm 0.00 in0.0 mm 0.00 in0.0 mm
06:10 AM 47.4°F8.6°C 38.5°F3.6°C 71% - N16091.8 kmh N -- 29.69 in1005.4 mb 0.00 in0.0 mm 0.00 in0.0 mm 0.00 in0.0 mm
06:05 AM 47.4°F8.6°C 38.5°F3.6°C 71% - N16091.8 kmh N -- 29.70 in1005.8 mb 0.00 in0.0 mm 0.00 in0.0 mm 0.00 in0.0 mm
06:00 AM 47.4°F8.6°C 38.5°F3.6°C 71% - N16091.8 kmh N -- 29.70 in1005.8 mb 0.00 in0.0 mm 0.00 in0.0 mm 0.00 in0.0 mm
05:59 AM 47.4°F8.6°C 38.5°F3.6°C 71% - N16091.8 kmh N -- 29.70 in1005.8 mb 0.00 in0.0 mm 0.00 in0.0 mm 0.00 in0.0 mm
05:55 AM 47.8°F8.8°C 38.8°F3.8°C 71% - N16091.8 kmh N -- 29.70 in1005.8 mb 0.00 in0.0 mm 0.00 in0.0 mm 0.00 in0.0 mm
05:50 AM 48.0°F8.9°C 39.3°F4.1°C 71% - N16091.8 kmh N -- 29.70 in1005.8 mb 0.00 in0.0 mm 0.00 in0.0 mm 0.00 in0.0 mm
05:49 AM 48.0°F8.9°C 39.3°F4.1°C 71% - N16091.8 kmh N -- 29.70 in1005.8 mb 0.00 in0.0 mm 0.00 in0.0 mm 0.00 in0.0 mm
05:45 AM 48.2°F9.0°C 39.5°F4.2°C 72% - N16091.8 kmh N -- 29.70 in1005.8 mb 0.00 in0.0 mm 0.00 in0.0 mm 0.00 in0.0 mm
05:44 AM 48.2°F9.0°C 39.5°F4.2°C 72% - N16091.8 kmh N -- 29.70 in1005.8 mb 0.00 in0.0 mm 0.00 in0.0 mm 0.00 in0.0 mm
05:40 AM 48.3°F9.1°C 39.7°F4.3°C 73% - N16091.8 kmh N -- 29.69 in1005.4 mb 0.00 in0.0 mm 0.00 in0.0 mm 0.00 in0.0 mm
05:39 AM 48.3°F9.1°C 39.7°F4.3°C 73% - N16091.8 kmh N -- 29.69 in1005.4 mb 0.00 in0.0 mm 0.00 in0.0 mm 0.00 in0.0 mm
05:35 AM 48.5°F9.2°C 40.2°F4.6°C 72% - N16091.8 kmh N -- 29.69 in1005.4 mb 0.00 in0.0 mm 0.00 in0.0 mm 0.00 in0.0 mm
05:30 AM 48.7°F9.3°C 40.4°F4.7°C 73% - N16091.8 kmh N -- 29.69 in1005.4 mb 0.00 in0.0 mm 0.00 in0.0 mm 0.00 in0.0 mm
05:29 AM 48.7°F9.3°C 40.4°F4.7°C 73% - N16091.8 kmh N -- 29.69 in1005.4 mb 0.00 in0.0 mm 0.00 in0.0 mm 0.00 in0.0 mm
05:25 AM 48.7°F9.3°C 40.4°F4.7°C 73% - N16091.8 kmh N -- 29.69 in1005.4 mb 0.00 in0.0 mm 0.00 in0.0 mm 0.00 in0.0 mm
05:20 AM 48.9°F9.4°C 40.9°F4.9°C 73% - N16091.8 kmh N -- 29.69 in1005.4 mb 0.00 in0.0 mm 0.00 in0.0 mm 0.00 in0.0 mm
05:15 AM 48.9°F9.4°C 40.9°F4.9°C 74% - N16091.8 kmh N -- 29.70 in1005.8 mb 0.00 in0.0 mm 0.00 in0.0 mm 0.00 in0.0 mm
05:10 AM 49.1°F9.5°C 41.4°F5.2°C 75% - N16091.8 kmh N -- 29.70 in1005.8 mb 0.00 in0.0 mm 0.00 in0.0 mm 0.00 in0.0 mm
05:05 AM 49.2°F9.6°C 41.2°F5.1°C 75% - N16091.8 kmh N -- 29.70 in1005.8 mb 0.00 in0.0 mm 0.00 in0.0 mm 0.00 in0.0 mm
05:00 AM 49.4°F9.7°C 41.4°F5.2°C 74% - N16091.8 kmh N -- 29.70 in1005.8 mb 0.00 in0.0 mm 0.00 in0.0 mm 0.00 in0.0 mm
04:55 AM 49.6°F9.8°C 40.6°F4.8°C 74% - N16091.8 kmh N -- 29.70 in1005.8 mb 0.00 in0.0 mm 0.00 in0.0 mm 0.00 in0.0 mm
04:50 AM 49.6°F9.8°C 40.6°F4.8°C 74% - N16091.8 kmh N -- 29.71 in1006.1 mb 0.00 in0.0 mm 0.00 in0.0 mm 0.00 in0.0 mm
04:45 AM 49.6°F9.8°C 40.6°F4.8°C 74% - N16091.8 kmh N -- 29.71 in1006.1 mb 0.00 in0.0 mm 0.00 in0.0 mm 0.00 in0.0 mm
04:40 AM 49.6°F9.8°C 40.6°F4.8°C 73% - N16091.8 kmh N -- 29.71 in1006.1 mb 0.00 in0.0 mm 0.00 in0.0 mm 0.00 in0.0 mm
04:35 AM 49.6°F9.8°C 40.6°F4.8°C 73% - N16091.8 kmh N -- 29.71 in1006.1 mb 0.00 in0.0 mm 0.00 in0.0 mm 0.00 in0.0 mm
04:30 AM 49.6°F9.8°C 40.6°F4.8°C 72% - N16091.8 kmh N -- 29.71 in1006.1 mb 0.00 in0.0 mm 0.00 in0.0 mm 0.00 in0.0 mm
04:25 AM 49.6°F9.8°C 40.6°F4.8°C 72% - N16091.8 kmh N -- 29.71 in1006.1 mb 0.00 in0.0 mm 0.00 in0.0 mm 0.00 in0.0 mm
04:20 AM 49.6°F9.8°C 40.6°F4.8°C 71% - N16091.8 kmh N -- 29.71 in1006.1 mb 0.00 in0.0 mm 0.00 in0.0 mm 0.00 in0.0 mm
04:15 AM 49.8°F9.9°C 40.8°F4.9°C 71% - N16091.8 kmh N -- 29.71 in1006.1 mb 0.00 in0.0 mm 0.00 in0.0 mm 0.00 in0.0 mm
04:10 AM 50.0°F10.0°C 40.9°F4.9°C 71% - N16091.8 kmh N -- 29.71 in1006.1 mb 0.00 in0.0 mm 0.00 in0.0 mm 0.00 in0.0 mm
04:05 AM 50.1°F10.1°C 41.1°F5.1°C 71% - N16091.8 kmh N -- 29.71 in1006.1 mb 0.00 in0.0 mm 0.00 in0.0 mm 0.00 in0.0 mm
04:04 AM 50.1°F10.1°C 41.1°F5.1°C 71% - N16091.8 kmh N -- 29.71 in1006.1 mb 0.00 in0.0 mm 0.00 in0.0 mm 0.00 in0.0 mm
03:59 AM 50.3°F10.2°C 41.0°F5.0°C 70% - N16091.8 kmh N -- 29.71 in1006.1 mb 0.00 in0.0 mm 0.00 in0.0 mm 0.00 in0.0 mm
03:55 AM 50.5°F10.3°C 40.7°F4.8°C 70% - N16091.8 kmh N -- 29.71 in1006.1 mb 0.00 in0.0 mm 0.00 in0.0 mm 0.00 in0.0 mm
03:54 AM 50.5°F10.3°C 40.7°F4.8°C 70% - N16091.8 kmh N -- 29.71 in1006.1 mb 0.00 in0.0 mm 0.00 in0.0 mm 0.00 in0.0 mm
03:50 AM 50.5°F10.3°C 40.7°F4.8°C 70% - N16091.8 kmh N -- 29.71 in1006.1 mb 0.00 in0.0 mm 0.00 in0.0 mm 0.00 in0.0 mm
03:49 AM 50.5°F10.3°C 40.7°F4.8°C 70% - N16091.8 kmh N -- 29.71 in1006.1 mb 0.00 in0.0 mm 0.00 in0.0 mm 0.00 in0.0 mm
03:45 AM 50.5°F10.3°C 40.7°F4.8°C 69% - N16091.8 kmh N -- 29.71 in1006.1 mb 0.00 in0.0 mm 0.00 in0.0 mm 0.00 in0.0 mm
03:40 AM 50.5°F10.3°C 40.7°F4.8°C 69% - N16091.8 kmh N -- 29.71 in1006.1 mb 0.00 in0.0 mm 0.00 in0.0 mm 0.00 in0.0 mm
03:35 AM 50.7°F10.4°C 40.5°F4.7°C 69% - N16091.8 kmh N -- 29.72 in1006.4 mb 0.00 in0.0 mm 0.00 in0.0 mm 0.00 in0.0 mm
03:34 AM 50.7°F10.4°C 40.5°F4.7°C 69% - N16091.8 kmh N -- 29.72 in1006.4 mb 0.00 in0.0 mm 0.00 in0.0 mm 0.00 in0.0 mm
03:30 AM 50.7°F10.4°C 40.5°F4.7°C 69% - N16091.8 kmh N -- 29.72 in1006.4 mb 0.00 in0.0 mm 0.00 in0.0 mm 0.00 in0.0 mm
03:29 AM 50.7°F10.4°C 40.5°F4.7°C 69% - N16091.8 kmh N -- 29.72 in1006.4 mb 0.00 in0.0 mm 0.00 in0.0 mm 0.00 in0.0 mm
03:25 AM 50.7°F10.4°C 40.5°F4.7°C 69% - N16091.8 kmh N -- 29.72 in1006.4 mb 0.00 in0.0 mm 0.00 in0.0 mm 0.00 in0.0 mm
03:24 AM 50.7°F10.4°C 40.5°F4.7°C 69% - N16091.8 kmh N -- 29.72 in1006.4 mb 0.00 in0.0 mm 0.00 in0.0 mm 0.00 in0.0 mm
03:20 AM 50.7°F10.4°C 40.5°F4.7°C 69% - N16091.8 kmh N -- 29.72 in1006.4 mb 0.00 in0.0 mm 0.00 in0.0 mm 0.00 in0.0 mm
03:19 AM 50.7°F10.4°C 40.5°F4.7°C 69% - N16091.8 kmh N -- 29.72 in1006.4 mb 0.00 in0.0 mm 0.00 in0.0 mm 0.00 in0.0 mm
03:15 AM 50.7°F10.4°C 40.5°F4.7°C 69% - N16091.8 kmh N -- 29.72 in1006.4 mb 0.00 in0.0 mm 0.00 in0.0 mm 0.00 in0.0 mm
03:14 AM 50.7°F10.4°C 40.5°F4.7°C 69% - N16091.8 kmh N -- 29.72 in1006.4 mb 0.00 in0.0 mm 0.00 in0.0 mm 0.00 in0.0 mm
03:10 AM 50.7°F10.4°C 40.5°F4.7°C 69% - N16091.8 kmh N -- 29.73 in1006.8 mb 0.00 in0.0 mm 0.00 in0.0 mm 0.00 in0.0 mm
03:09 AM 50.7°F10.4°C 40.5°F4.7°C 69% - N16091.8 kmh N -- 29.73 in1006.8 mb 0.00 in0.0 mm 0.00 in0.0 mm 0.00 in0.0 mm
03:05 AM 50.7°F10.4°C 40.5°F4.7°C 68% - N16091.8 kmh N -- 29.73 in1006.8 mb 0.00 in0.0 mm 0.00 in0.0 mm 0.00 in0.0 mm
03:04 AM 50.7°F10.4°C 40.5°F4.7°C 68% - N16091.8 kmh N -- 29.73 in1006.8 mb 0.00 in0.0 mm 0.00 in0.0 mm 0.00 in0.0 mm
02:59 AM 50.9°F10.5°C 40.7°F4.8°C 68% - N16091.8 kmh N -- 29.73 in1006.8 mb 0.00 in0.0 mm 0.00 in0.0 mm 0.00 in0.0 mm
02:55 AM 50.9°F10.5°C 40.7°F4.8°C 68% - N16091.8 kmh N -- 29.73 in1006.8 mb 0.00 in0.0 mm 0.00 in0.0 mm 0.00 in0.0 mm
02:54 AM 50.9°F10.5°C 40.7°F4.8°C 68% - N16091.8 kmh N -- 29.73 in1006.8 mb 0.00 in0.0 mm 0.00 in0.0 mm 0.00 in0.0 mm
02:50 AM 50.9°F10.5°C 39.9°F4.4°C 68% - N16091.8 kmh N -- 29.73 in1006.8 mb 0.00 in0.0 mm 0.00 in0.0 mm 0.00 in0.0 mm
02:49 AM 50.9°F10.5°C 39.9°F4.4°C 68% - N16091.8 kmh N -- 29.73 in1006.8 mb 0.00 in0.0 mm 0.00 in0.0 mm 0.00 in0.0 mm
02:45 AM 50.9°F10.5°C 39.9°F4.4°C 68% - N16091.8 kmh N -- 29.73 in1006.8 mb 0.00 in0.0 mm 0.00 in0.0 mm 0.00 in0.0 mm
02:44 AM 50.9°F10.5°C 39.9°F4.4°C 68% - N16091.8 kmh N -- 29.73 in1006.8 mb 0.00 in0.0 mm 0.00 in0.0 mm 0.00 in0.0 mm
02:40 AM 50.9°F10.5°C 39.9°F4.4°C 68% - N16091.8 kmh N -- 29.73 in1006.8 mb 0.00 in0.0 mm 0.00 in0.0 mm 0.00 in0.0 mm
02:39 AM 50.9°F10.5°C 39.9°F4.4°C 68% - N16091.8 kmh N -- 29.73 in1006.8 mb 0.00 in0.0 mm 0.00 in0.0 mm 0.00 in0.0 mm
02:34 AM 50.9°F10.5°C 39.9°F4.4°C 68% - N16091.8 kmh N -- 29.73 in1006.8 mb 0.00 in0.0 mm 0.00 in0.0 mm 0.00 in0.0 mm
02:29 AM 50.9°F10.5°C 39.9°F4.4°C 67% - N16091.8 kmh N -- 29.73 in1006.8 mb 0.00 in0.0 mm 0.00 in0.0 mm 0.00 in0.0 mm
02:24 AM 50.9°F10.5°C 39.9°F4.4°C 67% - N16091.8 kmh N -- 29.74 in1007.1 mb 0.00 in0.0 mm 0.00 in0.0 mm 0.00 in0.0 mm
02:19 AM 50.9°F10.5°C 39.9°F4.4°C 67% - N16091.8 kmh N -- 29.74 in1007.1 mb 0.00 in0.0 mm 0.00 in0.0 mm 0.00 in0.0 mm
02:14 AM 50.9°F10.5°C 39.9°F4.4°C 67% - N16091.8 kmh N -- 29.74 in1007.1 mb 0.00 in0.0 mm 0.00 in0.0 mm 0.00 in0.0 mm
02:09 AM 50.9°F10.5°C 39.9°F4.4°C 67% - N16091.8 kmh N -- 29.74 in1007.1 mb 0.00 in0.0 mm 0.00 in0.0 mm 0.00 in0.0 mm
02:04 AM 50.9°F10.5°C 39.9°F4.4°C 67% - N16091.8 kmh N -- 29.74 in1007.1 mb 0.00 in0.0 mm 0.00 in0.0 mm 0.00 in0.0 mm
01:59 AM 51.0°F10.6°C 40.0°F4.4°C 66% - N16091.8 kmh N -- 29.75 in1007.5 mb 0.00 in0.0 mm 0.00 in0.0 mm 0.00 in0.0 mm
01:54 AM 51.0°F10.6°C 40.0°F4.4°C 66% - N16091.8 kmh N -- 29.75 in1007.5 mb 0.00 in0.0 mm 0.00 in0.0 mm 0.00 in0.0 mm
01:49 AM 51.0°F10.6°C 40.0°F4.4°C 66% - N16091.8 kmh N -- 29.75 in1007.5 mb 0.00 in0.0 mm 0.00 in0.0 mm 0.00 in0.0 mm
01:44 AM 51.4°F10.8°C 40.4°F4.7°C 66% - N16091.8 kmh N -- 29.75 in1007.5 mb 0.00 in0.0 mm 0.00 in0.0 mm 0.00 in0.0 mm
01:39 AM 51.4°F10.8°C 40.4°F4.7°C 66% - N16091.8 kmh N -- 29.75 in1007.5 mb 0.00 in0.0 mm 0.00 in0.0 mm 0.00 in0.0 mm
01:34 AM 51.6°F10.9°C 40.6°F4.8°C 66% - N16091.8 kmh N -- 29.75 in1007.5 mb 0.00 in0.0 mm 0.00 in0.0 mm 0.00 in0.0 mm
01:29 AM 51.6°F10.9°C 40.6°F4.8°C 66% - N16091.8 kmh N -- 29.75 in1007.5 mb 0.00 in0.0 mm 0.00 in0.0 mm 0.00 in0.0 mm
01:24 AM 51.6°F10.9°C 40.6°F4.8°C 66% - N16091.8 kmh N -- 29.75 in1007.5 mb 0.00 in0.0 mm 0.00 in0.0 mm 0.00 in0.0 mm
01:19 AM 51.9°F11.1°C 40.5°F4.7°C 66% - N16091.8 kmh N -- 29.75 in1007.5 mb 0.00 in0.0 mm 0.00 in0.0 mm 0.00 in0.0 mm
01:14 AM 51.9°F11.1°C 40.5°F4.7°C 65% - N16091.8 kmh N -- 29.75 in1007.5 mb 0.00 in0.0 mm 0.00 in0.0 mm 0.00 in0.0 mm
01:09 AM 51.9°F11.1°C 40.5°F4.7°C 65% - N16091.8 kmh N -- 29.75 in1007.5 mb 0.00 in0.0 mm 0.00 in0.0 mm 0.00 in0.0 mm
01:04 AM 52.1°F11.2°C 40.7°F4.8°C 65% - N16091.8 kmh N -- 29.76 in1007.8 mb 0.00 in0.0 mm 0.00 in0.0 mm 0.00 in0.0 mm
12:59 AM 52.3°F11.3°C 40.8°F4.9°C 65% - N16091.8 kmh N -- 29.76 in1007.8 mb 0.00 in0.0 mm 0.00 in0.0 mm 0.00 in0.0 mm
12:54 AM 52.5°F11.4°C 41.0°F5.0°C 65% - N16091.8 kmh N -- 29.76 in1007.8 mb 0.00 in0.0 mm 0.00 in0.0 mm 0.00 in0.0 mm
12:49 AM 52.5°F11.4°C 41.0°F5.0°C 65% - N16091.8 kmh N -- 29.77 in1008.1 mb 0.00 in0.0 mm 0.00 in0.0 mm 0.00 in0.0 mm
12:44 AM 52.7°F11.5°C 41.2°F5.1°C 65% - N16091.8 kmh N -- 29.76 in1007.8 mb 0.00 in0.0 mm 0.00 in0.0 mm 0.00 in0.0 mm
12:39 AM 53.0°F11.7°C 41.5°F5.3°C 65% - N16091.8 kmh N -- 29.76 in1007.8 mb 0.00 in0.0 mm 0.00 in0.0 mm 0.00 in0.0 mm
12:34 AM 53.2°F11.8°C 41.7°F5.4°C 65% - N16091.8 kmh N -- 29.76 in1007.8 mb 0.00 in0.0 mm 0.00 in0.0 mm 0.00 in0.0 mm
12:29 AM 53.2°F11.8°C 41.7°F5.4°C 65% - N16091.8 kmh N -- 29.76 in1007.8 mb 0.00 in0.0 mm 0.00 in0.0 mm 0.00 in0.0 mm
12:24 AM 53.4°F11.9°C 41.9°F5.5°C 65% - N16091.8 kmh N -- 29.76 in1007.8 mb 0.00 in0.0 mm 0.00 in0.0 mm 0.00 in0.0 mm
12:19 AM 53.6°F12.0°C 42.0°F5.6°C 65% - N16091.8 kmh N -- 29.76 in1007.8 mb 0.00 in0.0 mm 0.00 in0.0 mm 0.00 in0.0 mm
12:14 AM 53.7°F12.1°C 41.8°F5.4°C 64% - N16091.8 kmh N -- 29.76 in1007.8 mb 0.00 in0.0 mm 0.00 in0.0 mm 0.00 in0.0 mm
12:09 AM 54.1°F12.3°C 42.1°F5.6°C 64% - N16091.8 kmh N -- 29.76 in1007.8 mb 0.00 in0.0 mm 0.00 in0.0 mm 0.00 in0.0 mm
12:03 AM 54.3°F12.4°C 42.3°F5.7°C 64% - N16091.8 kmh N -- 29.76 in1007.8 mb 0.00 in0.0 mm 0.00 in0.0 mm 0.00 in0.0 mm